sensor_id;sensor_type;location;lat;lon;timestamp;P1;durP1;ratioP1;P2;durP2;ratioP2
15104;SDS011;7653;48.994;9.212;2022-07-22T00:02:22;8.70;;;6.40;;
15104;SDS011;7653;48.994;9.212;2022-07-22T00:04:48;7.67;;;5.67;;
15104;SDS011;7653;48.994;9.212;2022-07-22T00:07:18;6.40;;;5.80;;
15104;SDS011;7653;48.994;9.212;2022-07-22T00:10:07;7.10;;;6.50;;
15104;SDS011;7653;48.994;9.212;2022-07-22T00:12:35;7.43;;;6.30;;
15104;SDS011;7653;48.994;9.212;2022-07-22T00:15:02;7.03;;;6.33;;
15104;SDS011;7653;48.994;9.212;2022-07-22T00:17:29;10.03;;;6.53;;
15104;SDS011;7653;48.994;9.212;2022-07-22T00:19:55;9.43;;;6.27;;
15104;SDS011;7653;48.994;9.212;2022-07-22T00:22:20;6.70;;;6.03;;
15104;SDS011;7653;48.994;9.212;2022-07-22T00:24:46;6.50;;;5.90;;
15104;SDS011;7653;48.994;9.212;2022-07-22T00:27:12;7.07;;;6.40;;
15104;SDS011;7653;48.994;9.212;2022-07-22T00:29:43;6.80;;;6.03;;
15104;SDS011;7653;48.994;9.212;2022-07-22T00:32:21;6.40;;;5.73;;
15104;SDS011;7653;48.994;9.212;2022-07-22T00:34:47;7.73;;;6.03;;
15104;SDS011;7653;48.994;9.212;2022-07-22T00:37:15;6.83;;;5.80;;
15104;SDS011;7653;48.994;9.212;2022-07-22T00:39:51;7.10;;;6.40;;
15104;SDS011;7653;48.994;9.212;2022-07-22T00:42:47;7.07;;;6.00;;
15104;SDS011;7653;48.994;9.212;2022-07-22T00:45:15;7.27;;;6.60;;
15104;SDS011;7653;48.994;9.212;2022-07-22T00:47:41;7.70;;;6.00;;
15104;SDS011;7653;48.994;9.212;2022-07-22T00:50:07;7.20;;;6.60;;
15104;SDS011;7653;48.994;9.212;2022-07-22T00:52:33;7.20;;;6.50;;
15104;SDS011;7653;48.994;9.212;2022-07-22T00:54:59;7.17;;;6.40;;
15104;SDS011;7653;48.994;9.212;2022-07-22T00:57:25;6.80;;;6.20;;
15104;SDS011;7653;48.994;9.212;2022-07-22T00:59:54;7.13;;;5.90;;
15104;SDS011;7653;48.994;9.212;2022-07-22T01:02:56;6.93;;;6.33;;
15104;SDS011;7653;48.994;9.212;2022-07-22T01:05:24;7.30;;;6.70;;
15104;SDS011;7653;48.994;9.212;2022-07-22T01:07:50;8.90;;;6.87;;
15104;SDS011;7653;48.994;9.212;2022-07-22T01:10:48;7.17;;;6.47;;
15104;SDS011;7653;48.994;9.212;2022-07-22T01:13:14;7.63;;;6.83;;
15104;SDS011;7653;48.994;9.212;2022-07-22T01:15:46;10.83;;;7.20;;
15104;SDS011;7653;48.994;9.212;2022-07-22T01:18:16;7.30;;;6.37;;
15104;SDS011;7653;48.994;9.212;2022-07-22T01:20:45;7.60;;;6.90;;
15104;SDS011;7653;48.994;9.212;2022-07-22T01:23:30;6.83;;;6.10;;
15104;SDS011;7653;48.994;9.212;2022-07-22T01:25:57;6.43;;;5.83;;
15104;SDS011;7653;48.994;9.212;2022-07-22T01:28:47;8.83;;;6.60;;
15104;SDS011;7653;48.994;9.212;2022-07-22T01:31:19;7.30;;;6.60;;
15104;SDS011;7653;48.994;9.212;2022-07-22T01:34:15;8.67;;;7.60;;
15104;SDS011;7653;48.994;9.212;2022-07-22T01:36:41;8.50;;;7.80;;
15104;SDS011;7653;48.994;9.212;2022-07-22T01:39:06;9.10;;;8.27;;
15104;SDS011;7653;48.994;9.212;2022-07-22T01:41:32;9.23;;;8.00;;
15104;SDS011;7653;48.994;9.212;2022-07-22T01:43:59;7.57;;;6.93;;
15104;SDS011;7653;48.994;9.212;2022-07-22T01:46:45;8.27;;;7.47;;
15104;SDS011;7653;48.994;9.212;2022-07-22T01:49:11;8.20;;;7.50;;
15104;SDS011;7653;48.994;9.212;2022-07-22T01:51:37;7.77;;;7.03;;
15104;SDS011;7653;48.994;9.212;2022-07-22T01:54:03;7.23;;;6.40;;
15104;SDS011;7653;48.994;9.212;2022-07-22T01:56:29;8.43;;;6.77;;
15104;SDS011;7653;48.994;9.212;2022-07-22T01:58:55;7.97;;;7.20;;
15104;SDS011;7653;48.994;9.212;2022-07-22T02:01:21;7.87;;;7.17;;
15104;SDS011;7653;48.994;9.212;2022-07-22T02:03:51;8.73;;;6.97;;
15104;SDS011;7653;48.994;9.212;2022-07-22T02:06:19;7.43;;;6.83;;
15104;SDS011;7653;48.994;9.212;2022-07-22T02:08:45;7.50;;;6.87;;
15104;SDS011;7653;48.994;9.212;2022-07-22T02:11:16;8.70;;;6.50;;
15104;SDS011;7653;48.994;9.212;2022-07-22T02:13:44;8.33;;;7.60;;
15104;SDS011;7653;48.994;9.212;2022-07-22T02:16:52;7.90;;;7.20;;
15104;SDS011;7653;48.994;9.212;2022-07-22T02:19:18;8.90;;;7.97;;
15104;SDS011;7653;48.994;9.212;2022-07-22T02:21:44;8.03;;;7.10;;
15104;SDS011;7653;48.994;9.212;2022-07-22T02:24:21;8.30;;;7.50;;
15104;SDS011;7653;48.994;9.212;2022-07-22T02:26:47;7.87;;;7.10;;
15104;SDS011;7653;48.994;9.212;2022-07-22T02:29:15;7.57;;;6.83;;
15104;SDS011;7653;48.994;9.212;2022-07-22T02:32:11;7.60;;;6.90;;
15104;SDS011;7653;48.994;9.212;2022-07-22T02:34:37;7.67;;;6.90;;
15104;SDS011;7653;48.994;9.212;2022-07-22T02:37:02;8.97;;;8.07;;
15104;SDS011;7653;48.994;9.212;2022-07-22T02:39:28;9.77;;;8.67;;
15104;SDS011;7653;48.994;9.212;2022-07-22T02:41:54;12.33;;;9.70;;
15104;SDS011;7653;48.994;9.212;2022-07-22T02:44:20;9.63;;;8.70;;
15104;SDS011;7653;48.994;9.212;2022-07-22T02:46:46;8.50;;;7.50;;
15104;SDS011;7653;48.994;9.212;2022-07-22T02:49:11;9.07;;;8.27;;
15104;SDS011;7653;48.994;9.212;2022-07-22T02:51:54;9.43;;;8.33;;
15104;SDS011;7653;48.994;9.212;2022-07-22T02:54:20;9.40;;;8.43;;
15104;SDS011;7653;48.994;9.212;2022-07-22T02:56:45;9.37;;;7.53;;
15104;SDS011;7653;48.994;9.212;2022-07-22T02:59:11;8.33;;;7.53;;
15104;SDS011;7653;48.994;9.212;2022-07-22T03:02:11;10.63;;;9.53;;
15104;SDS011;7653;48.994;9.212;2022-07-22T03:04:37;8.90;;;8.00;;
15104;SDS011;7653;48.994;9.212;2022-07-22T03:07:02;8.93;;;7.57;;
15104;SDS011;7653;48.994;9.212;2022-07-22T03:09:34;8.07;;;7.23;;
15104;SDS011;7653;48.994;9.212;2022-07-22T03:12:02;8.37;;;7.30;;
15104;SDS011;7653;48.994;9.212;2022-07-22T03:14:30;8.20;;;7.40;;
15104;SDS011;7653;48.994;9.212;2022-07-22T03:17:01;8.93;;;8.07;;
15104;SDS011;7653;48.994;9.212;2022-07-22T03:19:29;8.40;;;7.53;;
15104;SDS011;7653;48.994;9.212;2022-07-22T03:22:06;7.87;;;7.17;;
15104;SDS011;7653;48.994;9.212;2022-07-22T03:24:32;9.80;;;8.80;;
15104;SDS011;7653;48.994;9.212;2022-07-22T03:26:57;8.30;;;7.37;;
15104;SDS011;7653;48.994;9.212;2022-07-22T03:29:23;7.83;;;7.03;;
15104;SDS011;7653;48.994;9.212;2022-07-22T03:32:22;8.47;;;7.40;;
15104;SDS011;7653;48.994;9.212;2022-07-22T03:34:48;9.50;;;8.50;;
15104;SDS011;7653;48.994;9.212;2022-07-22T03:37:14;10.30;;;7.60;;
15104;SDS011;7653;48.994;9.212;2022-07-22T03:39:40;9.67;;;8.80;;
15104;SDS011;7653;48.994;9.212;2022-07-22T03:42:06;9.37;;;8.37;;
15104;SDS011;7653;48.994;9.212;2022-07-22T03:44:31;10.87;;;8.00;;
15104;SDS011;7653;48.994;9.212;2022-07-22T03:47:36;10.20;;;8.40;;
15104;SDS011;7653;48.994;9.212;2022-07-22T03:50:12;9.83;;;8.83;;
15104;SDS011;7653;48.994;9.212;2022-07-22T03:53:01;9.53;;;8.63;;
15104;SDS011;7653;48.994;9.212;2022-07-22T03:55:28;10.73;;;8.50;;
15104;SDS011;7653;48.994;9.212;2022-07-22T03:57:55;10.93;;;8.80;;
15104;SDS011;7653;48.994;9.212;2022-07-22T04:00:21;9.50;;;8.07;;
15104;SDS011;7653;48.994;9.212;2022-07-22T04:02:47;8.57;;;7.70;;
15104;SDS011;7653;48.994;9.212;2022-07-22T04:05:24;8.60;;;7.70;;
15104;SDS011;7653;48.994;9.212;2022-07-22T04:07:50;9.50;;;8.60;;
15104;SDS011;7653;48.994;9.212;2022-07-22T04:10:16;9.50;;;8.50;;
15104;SDS011;7653;48.994;9.212;2022-07-22T04:12:43;9.67;;;8.77;;
15104;SDS011;7653;48.994;9.212;2022-07-22T04:15:08;11.97;;;10.40;;
15104;SDS011;7653;48.994;9.212;2022-07-22T04:17:35;11.80;;;10.27;;
15104;SDS011;7653;48.994;9.212;2022-07-22T04:20:28;9.93;;;8.87;;
15104;SDS011;7653;48.994;9.212;2022-07-22T04:22:58;11.40;;;10.30;;
15104;SDS011;7653;48.994;9.212;2022-07-22T04:25:24;11.40;;;10.30;;
15104;SDS011;7653;48.994;9.212;2022-07-22T04:27:49;12.80;;;11.50;;
15104;SDS011;7653;48.994;9.212;2022-07-22T04:30:18;11.77;;;10.40;;
15104;SDS011;7653;48.994;9.212;2022-07-22T04:32:45;12.17;;;11.07;;
15104;SDS011;7653;48.994;9.212;2022-07-22T04:35:11;12.20;;;11.00;;
15104;SDS011;7653;48.994;9.212;2022-07-22T04:37:36;11.80;;;10.60;;
15104;SDS011;7653;48.994;9.212;2022-07-22T04:40:02;14.43;;;11.03;;
15104;SDS011;7653;48.994;9.212;2022-07-22T04:42:28;12.70;;;11.13;;
15104;SDS011;7653;48.994;9.212;2022-07-22T04:44:54;12.17;;;10.83;;
15104;SDS011;7653;48.994;9.212;2022-07-22T04:47:21;9.63;;;8.70;;
15104;SDS011;7653;48.994;9.212;2022-07-22T04:50:30;9.53;;;8.63;;
15104;SDS011;7653;48.994;9.212;2022-07-22T04:53:03;9.37;;;8.47;;
15104;SDS011;7653;48.994;9.212;2022-07-22T04:55:29;9.80;;;8.53;;
15104;SDS011;7653;48.994;9.212;2022-07-22T04:57:54;8.17;;;7.37;;
15104;SDS011;7653;48.994;9.212;2022-07-22T05:00:20;10.03;;;8.40;;
15104;SDS011;7653;48.994;9.212;2022-07-22T05:03:17;9.17;;;8.27;;
15104;SDS011;7653;48.994;9.212;2022-07-22T05:05:50;8.77;;;7.90;;
15104;SDS011;7653;48.994;9.212;2022-07-22T05:08:18;9.10;;;8.07;;
15104;SDS011;7653;48.994;9.212;2022-07-22T05:10:44;9.77;;;8.67;;
15104;SDS011;7653;48.994;9.212;2022-07-22T05:13:11;10.07;;;9.03;;
15104;SDS011;7653;48.994;9.212;2022-07-22T05:15:38;9.93;;;8.47;;
15104;SDS011;7653;48.994;9.212;2022-07-22T05:18:09;9.87;;;8.87;;
15104;SDS011;7653;48.994;9.212;2022-07-22T05:20:37;9.27;;;8.37;;
15104;SDS011;7653;48.994;9.212;2022-07-22T05:26:20;10.47;;;9.00;;
15104;SDS011;7653;48.994;9.212;2022-07-22T05:28:49;11.33;;;10.10;;
15104;SDS011;7653;48.994;9.212;2022-07-22T05:31:18;13.57;;;10.57;;
15104;SDS011;7653;48.994;9.212;2022-07-22T05:33:44;13.60;;;10.70;;
15104;SDS011;7653;48.994;9.212;2022-07-22T05:36:09;13.87;;;10.90;;
15104;SDS011;7653;48.994;9.212;2022-07-22T05:38:35;15.97;;;11.17;;
15104;SDS011;7653;48.994;9.212;2022-07-22T05:41:02;15.80;;;11.13;;
15104;SDS011;7653;48.994;9.212;2022-07-22T05:43:42;15.80;;;11.90;;
15104;SDS011;7653;48.994;9.212;2022-07-22T05:46:08;16.47;;;11.63;;
15104;SDS011;7653;48.994;9.212;2022-07-22T05:48:33;12.17;;;10.40;;
15104;SDS011;7653;48.994;9.212;2022-07-22T05:50:59;15.57;;;11.03;;
15104;SDS011;7653;48.994;9.212;2022-07-22T05:53:25;18.20;;;11.33;;
15104;SDS011;7653;48.994;9.212;2022-07-22T05:55:51;11.17;;;9.93;;
15104;SDS011;7653;48.994;9.212;2022-07-22T05:58:16;13.90;;;10.40;;
15104;SDS011;7653;48.994;9.212;2022-07-22T06:00:46;14.90;;;10.57;;
15104;SDS011;7653;48.994;9.212;2022-07-22T06:03:12;14.27;;;9.50;;
15104;SDS011;7653;48.994;9.212;2022-07-22T06:05:38;12.23;;;10.33;;
15104;SDS011;7653;48.994;9.212;2022-07-22T06:08:04;13.07;;;9.93;;
15104;SDS011;7653;48.994;9.212;2022-07-22T06:10:29;10.87;;;9.10;;
15104;SDS011;7653;48.994;9.212;2022-07-22T06:13:02;14.40;;;9.23;;
15104;SDS011;7653;48.994;9.212;2022-07-22T06:15:28;13.47;;;9.10;;
15104;SDS011;7653;48.994;9.212;2022-07-22T06:17:54;10.97;;;8.67;;
15104;SDS011;7653;48.994;9.212;2022-07-22T06:20:20;11.40;;;8.87;;
15104;SDS011;7653;48.994;9.212;2022-07-22T06:22:58;12.40;;;8.70;;
15104;SDS011;7653;48.994;9.212;2022-07-22T06:25:24;10.33;;;8.33;;
15104;SDS011;7653;48.994;9.212;2022-07-22T06:27:50;10.37;;;8.47;;
15104;SDS011;7653;48.994;9.212;2022-07-22T06:30:15;11.57;;;8.43;;
15104;SDS011;7653;48.994;9.212;2022-07-22T06:32:44;9.37;;;8.30;;
15104;SDS011;7653;48.994;9.212;2022-07-22T06:35:12;10.43;;;8.90;;
15104;SDS011;7653;48.994;9.212;2022-07-22T06:37:37;10.60;;;8.50;;
15104;SDS011;7653;48.994;9.212;2022-07-22T06:40:06;8.90;;;8.00;;
15104;SDS011;7653;48.994;9.212;2022-07-22T06:42:32;10.40;;;7.57;;
15104;SDS011;7653;48.994;9.212;2022-07-22T06:44:58;9.80;;;8.40;;
15104;SDS011;7653;48.994;9.212;2022-07-22T06:47:24;8.17;;;7.33;;
15104;SDS011;7653;48.994;9.212;2022-07-22T06:49:49;9.50;;;8.07;;
15104;SDS011;7653;48.994;9.212;2022-07-22T06:52:15;10.77;;;8.23;;
15104;SDS011;7653;48.994;9.212;2022-07-22T06:54:41;8.70;;;7.77;;
15104;SDS011;7653;48.994;9.212;2022-07-22T06:57:06;10.97;;;7.97;;
15104;SDS011;7653;48.994;9.212;2022-07-22T06:59:32;10.43;;;7.53;;
15104;SDS011;7653;48.994;9.212;2022-07-22T07:01:57;8.83;;;7.90;;
15104;SDS011;7653;48.994;9.212;2022-07-22T07:04:23;9.13;;;7.50;;
15104;SDS011;7653;48.994;9.212;2022-07-22T07:06:51;9.53;;;7.80;;
15104;SDS011;7653;48.994;9.212;2022-07-22T07:09:17;8.27;;;7.20;;
15104;SDS011;7653;48.994;9.212;2022-07-22T07:11:45;7.83;;;7.00;;
15104;SDS011;7653;48.994;9.212;2022-07-22T07:14:11;8.80;;;7.03;;
15104;SDS011;7653;48.994;9.212;2022-07-22T07:16:42;8.33;;;7.40;;
15104;SDS011;7653;48.994;9.212;2022-07-22T07:19:10;9.97;;;7.47;;
15104;SDS011;7653;48.994;9.212;2022-07-22T07:21:38;8.17;;;7.10;;
15104;SDS011;7653;48.994;9.212;2022-07-22T07:24:04;7.37;;;6.73;;
15104;SDS011;7653;48.994;9.212;2022-07-22T07:26:30;7.83;;;6.57;;
15104;SDS011;7653;48.994;9.212;2022-07-22T07:28:56;8.37;;;7.17;;
15104;SDS011;7653;48.994;9.212;2022-07-22T07:31:21;7.23;;;6.53;;
15104;SDS011;7653;48.994;9.212;2022-07-22T07:33:47;8.77;;;7.10;;
15104;SDS011;7653;48.994;9.212;2022-07-22T07:36:13;7.60;;;6.90;;
15104;SDS011;7653;48.994;9.212;2022-07-22T07:38:39;7.67;;;6.97;;
15104;SDS011;7653;48.994;9.212;2022-07-22T07:41:04;8.43;;;6.47;;
15104;SDS011;7653;48.994;9.212;2022-07-22T07:43:30;7.30;;;6.60;;
15104;SDS011;7653;48.994;9.212;2022-07-22T07:45:56;6.97;;;6.27;;
15104;SDS011;7653;48.994;9.212;2022-07-22T07:48:21;8.33;;;7.00;;
15104;SDS011;7653;48.994;9.212;2022-07-22T07:50:47;7.67;;;6.97;;
15104;SDS011;7653;48.994;9.212;2022-07-22T07:53:14;7.50;;;6.70;;
15104;SDS011;7653;48.994;9.212;2022-07-22T07:55:40;7.50;;;6.77;;
15104;SDS011;7653;48.994;9.212;2022-07-22T07:58:06;9.07;;;6.57;;
15104;SDS011;7653;48.994;9.212;2022-07-22T08:00:32;7.87;;;6.87;;
15104;SDS011;7653;48.994;9.212;2022-07-22T08:02:59;9.40;;;6.77;;
15104;SDS011;7653;48.994;9.212;2022-07-22T08:05:26;7.97;;;7.27;;
15104;SDS011;7653;48.994;9.212;2022-07-22T08:07:51;7.70;;;6.77;;
15104;SDS011;7653;48.994;9.212;2022-07-22T08:10:18;7.40;;;6.70;;
15104;SDS011;7653;48.994;9.212;2022-07-22T08:12:44;7.80;;;7.00;;
15104;SDS011;7653;48.994;9.212;2022-07-22T08:15:10;7.53;;;6.83;;
15104;SDS011;7653;48.994;9.212;2022-07-22T08:17:36;7.07;;;6.27;;
15104;SDS011;7653;48.994;9.212;2022-07-22T08:20:02;7.63;;;6.93;;
15104;SDS011;7653;48.994;9.212;2022-07-22T08:22:29;9.63;;;7.27;;
15104;SDS011;7653;48.994;9.212;2022-07-22T08:24:55;8.23;;;7.10;;
15104;SDS011;7653;48.994;9.212;2022-07-22T08:27:21;8.03;;;6.90;;
15104;SDS011;7653;48.994;9.212;2022-07-22T08:29:47;7.60;;;6.53;;
15104;SDS011;7653;48.994;9.212;2022-07-22T08:32:12;10.27;;;7.70;;
15104;SDS011;7653;48.994;9.212;2022-07-22T08:34:38;10.90;;;7.30;;
15104;SDS011;7653;48.994;9.212;2022-07-22T08:37:04;8.70;;;7.37;;
15104;SDS011;7653;48.994;9.212;2022-07-22T08:39:29;8.60;;;6.97;;
15104;SDS011;7653;48.994;9.212;2022-07-22T08:41:55;10.33;;;7.60;;
15104;SDS011;7653;48.994;9.212;2022-07-22T08:44:22;8.13;;;7.00;;
15104;SDS011;7653;48.994;9.212;2022-07-22T08:46:48;8.00;;;6.83;;
15104;SDS011;7653;48.994;9.212;2022-07-22T08:49:14;11.63;;;7.70;;
15104;SDS011;7653;48.994;9.212;2022-07-22T08:51:41;9.40;;;7.50;;
15104;SDS011;7653;48.994;9.212;2022-07-22T08:54:07;9.67;;;7.37;;
15104;SDS011;7653;48.994;9.212;2022-07-22T08:56:33;8.97;;;7.67;;
15104;SDS011;7653;48.994;9.212;2022-07-22T08:58:59;10.13;;;7.20;;
15104;SDS011;7653;48.994;9.212;2022-07-22T09:01:24;11.07;;;7.43;;
15104;SDS011;7653;48.994;9.212;2022-07-22T09:03:54;8.43;;;6.87;;
15104;SDS011;7653;48.994;9.212;2022-07-22T09:06:41;8.40;;;6.90;;
15104;SDS011;7653;48.994;9.212;2022-07-22T09:09:13;8.33;;;6.43;;
15104;SDS011;7653;48.994;9.212;2022-07-22T09:11:39;9.07;;;6.80;;
15104;SDS011;7653;48.994;9.212;2022-07-22T09:14:04;7.63;;;6.63;;
15104;SDS011;7653;48.994;9.212;2022-07-22T09:19:08;9.43;;;7.90;;
15104;SDS011;7653;48.994;9.212;2022-07-22T09:21:35;7.83;;;6.30;;
15104;SDS011;7653;48.994;9.212;2022-07-22T09:24:03;7.73;;;6.53;;
15104;SDS011;7653;48.994;9.212;2022-07-22T09:26:34;8.60;;;7.07;;
15104;SDS011;7653;48.994;9.212;2022-07-22T09:29:02;8.40;;;6.60;;
15104;SDS011;7653;48.994;9.212;2022-07-22T09:31:33;9.03;;;7.53;;
15104;SDS011;7653;48.994;9.212;2022-07-22T09:34:00;8.40;;;7.03;;
15104;SDS011;7653;48.994;9.212;2022-07-22T09:36:27;8.13;;;7.33;;
15104;SDS011;7653;48.994;9.212;2022-07-22T09:38:53;7.70;;;6.70;;
15104;SDS011;7653;48.994;9.212;2022-07-22T09:41:19;7.73;;;6.70;;
15104;SDS011;7653;48.994;9.212;2022-07-22T09:43:45;8.70;;;5.90;;
15104;SDS011;7653;48.994;9.212;2022-07-22T09:46:11;6.67;;;6.07;;
15104;SDS011;7653;48.994;9.212;2022-07-22T09:48:37;9.33;;;6.80;;
15104;SDS011;7653;48.994;9.212;2022-07-22T09:51:04;6.90;;;6.30;;
15104;SDS011;7653;48.994;9.212;2022-07-22T09:53:30;8.97;;;6.33;;
15104;SDS011;7653;48.994;9.212;2022-07-22T09:55:58;7.57;;;6.33;;
15104;SDS011;7653;48.994;9.212;2022-07-22T09:58:26;7.00;;;6.30;;
15104;SDS011;7653;48.994;9.212;2022-07-22T10:00:53;7.60;;;6.80;;
15104;SDS011;7653;48.994;9.212;2022-07-22T10:03:26;6.88;;;6.18;;
15104;SDS011;7653;48.994;9.212;2022-07-22T10:06:02;6.80;;;6.13;;
15104;SDS011;7653;48.994;9.212;2022-07-22T10:08:30;7.03;;;6.33;;
15104;SDS011;7653;48.994;9.212;2022-07-22T10:11:01;7.07;;;6.13;;
15104;SDS011;7653;48.994;9.212;2022-07-22T10:13:46;6.23;;;5.70;;
15104;SDS011;7653;48.994;9.212;2022-07-22T10:19:01;7.50;;;6.23;;
15104;SDS011;7653;48.994;9.212;2022-07-22T10:21:32;7.50;;;6.80;;
15104;SDS011;7653;48.994;9.212;2022-07-22T10:24:15;7.97;;;6.07;;
15104;SDS011;7653;48.994;9.212;2022-07-22T10:35:29;8.57;;;6.03;;
15104;SDS011;7653;48.994;9.212;2022-07-22T10:40:16;7.60;;;6.80;;
15104;SDS011;7653;48.994;9.212;2022-07-22T10:45:34;7.82;;;5.78;;
15104;SDS011;7653;48.994;9.212;2022-07-22T10:48:07;6.03;;;5.43;;
15104;SDS011;7653;48.994;9.212;2022-07-22T10:53:07;8.07;;;5.47;;
15104;SDS011;7653;48.994;9.212;2022-07-22T10:55:37;5.60;;;4.97;;
15104;SDS011;7653;48.994;9.212;2022-07-22T11:01:06;6.63;;;4.90;;
15104;SDS011;7653;48.994;9.212;2022-07-22T11:03:33;7.00;;;5.80;;
15104;SDS011;7653;48.994;9.212;2022-07-22T11:06:14;6.03;;;5.43;;
15104;SDS011;7653;48.994;9.212;2022-07-22T11:08:59;6.25;;;5.00;;
15104;SDS011;7653;48.994;9.212;2022-07-22T11:16:47;5.28;;;4.80;;
15104;SDS011;7653;48.994;9.212;2022-07-22T11:19:14;7.45;;;5.68;;
15104;SDS011;7653;48.994;9.212;2022-07-22T11:21:48;5.28;;;4.88;;
15104;SDS011;7653;48.994;9.212;2022-07-22T11:24:16;6.40;;;5.18;;
15104;SDS011;7653;48.994;9.212;2022-07-22T11:26:43;5.60;;;4.95;;
15104;SDS011;7653;48.994;9.212;2022-07-22T11:31:49;6.35;;;5.15;;
15104;SDS011;7653;48.994;9.212;2022-07-22T11:34:15;6.28;;;5.18;;
15104;SDS011;7653;48.994;9.212;2022-07-22T11:36:42;6.20;;;4.85;;
15104;SDS011;7653;48.994;9.212;2022-07-22T11:39:11;5.68;;;5.00;;
15104;SDS011;7653;48.994;9.212;2022-07-22T11:41:40;10.10;;;4.70;;
15104;SDS011;7653;48.994;9.212;2022-07-22T11:44:22;6.75;;;5.22;;
15104;SDS011;7653;48.994;9.212;2022-07-22T11:46:54;8.57;;;5.07;;
15104;SDS011;7653;48.994;9.212;2022-07-22T11:49:23;6.75;;;5.30;;
15104;SDS011;7653;48.994;9.212;2022-07-22T11:51:51;5.85;;;5.28;;
15104;SDS011;7653;48.994;9.212;2022-07-22T11:54:33;5.45;;;5.05;;
15104;SDS011;7653;48.994;9.212;2022-07-22T11:56:59;5.38;;;4.88;;
15104;SDS011;7653;48.994;9.212;2022-07-22T11:59:27;5.75;;;5.10;;
15104;SDS011;7653;48.994;9.212;2022-07-22T12:02:21;6.47;;;5.00;;
15104;SDS011;7653;48.994;9.212;2022-07-22T12:04:48;6.50;;;5.47;;
15104;SDS011;7653;48.994;9.212;2022-07-22T12:07:14;5.60;;;5.10;;
15104;SDS011;7653;48.994;9.212;2022-07-22T12:09:41;5.70;;;5.20;;
15104;SDS011;7653;48.994;9.212;2022-07-22T12:12:07;5.72;;;5.22;;
15104;SDS011;7653;48.994;9.212;2022-07-22T12:14:33;5.10;;;4.53;;
15104;SDS011;7653;48.994;9.212;2022-07-22T12:17:09;7.22;;;4.88;;
15104;SDS011;7653;48.994;9.212;2022-07-22T12:19:39;6.85;;;5.07;;
15104;SDS011;7653;48.994;9.212;2022-07-22T12:22:22;7.82;;;5.10;;
15104;SDS011;7653;48.994;9.212;2022-07-22T12:25:00;5.82;;;4.75;;
15104;SDS011;7653;48.994;9.212;2022-07-22T12:27:27;5.47;;;4.60;;
15104;SDS011;7653;48.994;9.212;2022-07-22T12:29:53;5.07;;;4.38;;
15104;SDS011;7653;48.994;9.212;2022-07-22T12:34:54;8.23;;;5.22;;
15104;SDS011;7653;48.994;9.212;2022-07-22T12:37:45;5.50;;;4.38;;
15104;SDS011;7653;48.994;9.212;2022-07-22T12:40:31;5.03;;;4.63;;
15104;SDS011;7653;48.994;9.212;2022-07-22T12:43:05;5.72;;;5.07;;
15104;SDS011;7653;48.994;9.212;2022-07-22T12:46:02;5.07;;;4.57;;
15104;SDS011;7653;48.994;9.212;2022-07-22T12:48:28;6.60;;;4.70;;
15104;SDS011;7653;48.994;9.212;2022-07-22T12:50:55;5.25;;;4.82;;
15104;SDS011;7653;48.994;9.212;2022-07-22T12:53:25;7.32;;;5.00;;
15104;SDS011;7653;48.994;9.212;2022-07-22T12:55:58;4.90;;;4.25;;
15104;SDS011;7653;48.994;9.212;2022-07-22T12:58:26;4.93;;;4.43;;
15104;SDS011;7653;48.994;9.212;2022-07-22T13:00:54;4.95;;;4.55;;
15104;SDS011;7653;48.994;9.212;2022-07-22T13:03:24;5.13;;;4.68;;
15104;SDS011;7653;48.994;9.212;2022-07-22T13:05:57;6.07;;;4.85;;
15104;SDS011;7653;48.994;9.212;2022-07-22T13:08:46;4.65;;;4.25;;
15104;SDS011;7653;48.994;9.212;2022-07-22T13:11:13;5.32;;;4.45;;
15104;SDS011;7653;48.994;9.212;2022-07-22T13:14:05;4.88;;;4.38;;
15104;SDS011;7653;48.994;9.212;2022-07-22T13:16:43;4.40;;;4.07;;
15104;SDS011;7653;48.994;9.212;2022-07-22T13:19:11;4.88;;;4.38;;
15104;SDS011;7653;48.994;9.212;2022-07-22T13:21:46;7.43;;;4.40;;
15104;SDS011;7653;48.994;9.212;2022-07-22T13:24:15;5.82;;;4.30;;
15104;SDS011;7653;48.994;9.212;2022-07-22T13:26:41;5.10;;;4.60;;
15104;SDS011;7653;48.994;9.212;2022-07-22T13:29:07;5.05;;;4.53;;
15104;SDS011;7653;48.994;9.212;2022-07-22T13:31:37;4.70;;;4.30;;
15104;SDS011;7653;48.994;9.212;2022-07-22T13:34:03;4.30;;;3.90;;
15104;SDS011;7653;48.994;9.212;2022-07-22T13:36:32;4.60;;;4.20;;
15104;SDS011;7653;48.994;9.212;2022-07-22T13:38:59;4.65;;;4.25;;
15104;SDS011;7653;48.994;9.212;2022-07-22T13:41:26;5.20;;;4.32;;
15104;SDS011;7653;48.994;9.212;2022-07-22T13:43:52;6.07;;;4.28;;
15104;SDS011;7653;48.994;9.212;2022-07-22T13:46:18;5.88;;;4.22;;
15104;SDS011;7653;48.994;9.212;2022-07-22T13:48:44;4.50;;;3.75;;
15104;SDS011;7653;48.994;9.212;2022-07-22T13:51:18;4.20;;;3.90;;
15104;SDS011;7653;48.994;9.212;2022-07-22T13:53:44;6.15;;;4.15;;
15104;SDS011;7653;48.994;9.212;2022-07-22T13:56:10;5.28;;;3.80;;
15104;SDS011;7653;48.994;9.212;2022-07-22T13:58:37;5.05;;;4.10;;
15104;SDS011;7653;48.994;9.212;2022-07-22T14:01:08;4.90;;;3.97;;
15104;SDS011;7653;48.994;9.212;2022-07-22T14:03:35;3.95;;;3.55;;
15104;SDS011;7653;48.994;9.212;2022-07-22T14:06:02;4.28;;;3.85;;
15104;SDS011;7653;48.994;9.212;2022-07-22T14:08:28;6.05;;;3.97;;
15104;SDS011;7653;48.994;9.212;2022-07-22T14:10:54;6.35;;;4.07;;
15104;SDS011;7653;48.994;9.212;2022-07-22T14:13:19;4.32;;;3.80;;
15104;SDS011;7653;48.994;9.212;2022-07-22T14:15:45;4.10;;;3.55;;
15104;SDS011;7653;48.994;9.212;2022-07-22T14:18:12;4.38;;;3.75;;
15104;SDS011;7653;48.994;9.212;2022-07-22T14:20:40;4.18;;;3.55;;
15104;SDS011;7653;48.994;9.212;2022-07-22T14:23:07;4.40;;;3.95;;
15104;SDS011;7653;48.994;9.212;2022-07-22T14:25:35;4.35;;;3.70;;
15104;SDS011;7653;48.994;9.212;2022-07-22T14:28:01;4.07;;;3.78;;
15104;SDS011;7653;48.994;9.212;2022-07-22T14:30:28;4.05;;;3.72;;
15104;SDS011;7653;48.994;9.212;2022-07-22T14:32:54;4.30;;;3.90;;
15104;SDS011;7653;48.994;9.212;2022-07-22T14:35:26;3.95;;;3.60;;
15104;SDS011;7653;48.994;9.212;2022-07-22T14:37:53;3.92;;;3.60;;
15104;SDS011;7653;48.994;9.212;2022-07-22T14:40:19;4.80;;;3.88;;
15104;SDS011;7653;48.994;9.212;2022-07-22T14:42:44;4.43;;;3.78;;
15104;SDS011;7653;48.994;9.212;2022-07-22T14:45:11;5.72;;;3.40;;
15104;SDS011;7653;48.994;9.212;2022-07-22T14:47:37;4.53;;;3.70;;
15104;SDS011;7653;48.994;9.212;2022-07-22T14:50:06;3.75;;;3.45;;
15104;SDS011;7653;48.994;9.212;2022-07-22T14:52:32;4.10;;;3.70;;
15104;SDS011;7653;48.994;9.212;2022-07-22T14:54:58;4.18;;;3.88;;
15104;SDS011;7653;48.994;9.212;2022-07-22T14:57:23;3.72;;;3.42;;
15104;SDS011;7653;48.994;9.212;2022-07-22T14:59:49;3.95;;;3.65;;
15104;SDS011;7653;48.994;9.212;2022-07-22T15:02:15;4.55;;;3.30;;
15104;SDS011;7653;48.994;9.212;2022-07-22T15:04:42;3.65;;;3.35;;
15104;SDS011;7653;48.994;9.212;2022-07-22T15:07:08;3.53;;;3.10;;
15104;SDS011;7653;48.994;9.212;2022-07-22T15:09:40;3.45;;;2.72;;
15104;SDS011;7653;48.994;9.212;2022-07-22T15:12:20;3.50;;;3.20;;
15104;SDS011;7653;48.994;9.212;2022-07-22T15:14:45;3.88;;;3.00;;
15104;SDS011;7653;48.994;9.212;2022-07-22T15:17:14;3.20;;;2.97;;
15104;SDS011;7653;48.994;9.212;2022-07-22T15:19:39;5.75;;;3.50;;
15104;SDS011;7653;48.994;9.212;2022-07-22T15:22:06;3.72;;;3.42;;
15104;SDS011;7653;48.994;9.212;2022-07-22T15:24:34;3.88;;;3.50;;
15104;SDS011;7653;48.994;9.212;2022-07-22T15:27:02;3.65;;;3.35;;
15104;SDS011;7653;48.994;9.212;2022-07-22T15:29:28;4.55;;;3.22;;
15104;SDS011;7653;48.994;9.212;2022-07-22T15:31:55;6.47;;;3.40;;
15104;SDS011;7653;48.994;9.212;2022-07-22T15:34:20;4.13;;;3.45;;
15104;SDS011;7653;48.994;9.212;2022-07-22T15:36:46;4.45;;;3.20;;
15104;SDS011;7653;48.994;9.212;2022-07-22T15:39:12;3.85;;;3.25;;
15104;SDS011;7653;48.994;9.212;2022-07-22T15:41:39;3.67;;;3.38;;
15104;SDS011;7653;48.994;9.212;2022-07-22T15:44:05;3.95;;;3.50;;
15104;SDS011;7653;48.994;9.212;2022-07-22T15:46:38;3.80;;;3.45;;
15104;SDS011;7653;48.994;9.212;2022-07-22T15:49:04;5.90;;;3.80;;
15104;SDS011;7653;48.994;9.212;2022-07-22T15:51:30;3.90;;;3.58;;